createdAt,value
2017-10-11T00:02:06.972Z,13.30
2017-10-11T00:04:36.297Z,14.13
2017-10-11T00:07:03.924Z,14.07
2017-10-11T00:09:31.663Z,12.90
2017-10-11T00:11:58.696Z,14.68
2017-10-11T00:14:25.829Z,14.30
2017-10-11T00:16:53.810Z,13.30
2017-10-11T00:19:22.308Z,13.90
2017-10-11T00:21:49.557Z,12.77
2017-10-11T00:24:16.245Z,14.63
2017-10-11T00:26:42.943Z,13.95
2017-10-11T00:29:10.484Z,12.15
2017-10-11T00:31:37.226Z,12.05
2017-10-11T00:34:03.924Z,12.85
2017-10-11T00:36:31.573Z,11.05
2017-10-11T00:38:59.633Z,10.60
2017-10-11T00:41:27.280Z,11.38
2017-10-11T00:43:54.297Z,10.90
2017-10-11T00:46:21.028Z,10.63
2017-10-11T00:48:49.940Z,10.52
2017-10-11T00:51:16.712Z,11.60
2017-10-11T00:53:44.242Z,10.63
2017-10-11T00:56:10.976Z,11.12
2017-10-11T00:58:37.666Z,10.13
2017-10-11T01:01:06.724Z,9.30
2017-10-11T01:03:33.427Z,11.90
2017-10-11T01:06:01.151Z,10.65
2017-10-11T01:08:27.841Z,9.57
2017-10-11T01:10:54.568Z,10.70
2017-10-11T01:13:22.710Z,10.43
2017-10-11T01:15:50.344Z,10.27
2017-10-11T01:18:17.664Z,10.65
2017-10-11T01:20:44.356Z,9.93
2017-10-11T01:23:11.772Z,9.82
2017-10-11T01:25:39.309Z,10.23
2017-10-11T01:28:06.228Z,9.95
2017-10-11T01:30:32.992Z,8.82
2017-10-11T01:33:00.642Z,9.60
2017-10-11T01:35:27.328Z,9.32
2017-10-11T01:37:54.844Z,9.27
2017-10-11T01:40:21.909Z,9.32
2017-10-11T01:42:48.600Z,9.60
2017-10-11T01:45:16.075Z,9.70
2017-10-11T01:47:43.679Z,10.30
2017-10-11T01:50:10.460Z,10.60
2017-10-11T01:52:37.160Z,9.30
2017-10-11T01:55:09.689Z,9.45
2017-10-11T01:57:36.444Z,9.02
2017-10-11T02:00:03.519Z,9.55
2017-10-11T02:02:31.483Z,11.35
2017-10-11T02:04:58.191Z,11.77
2017-10-11T02:07:26.379Z,11.15
2017-10-11T02:09:54.608Z,11.70
2017-10-11T02:12:21.553Z,11.27
2017-10-11T02:14:48.469Z,11.38
2017-10-11T02:17:15.416Z,13.88
2017-10-11T02:19:42.716Z,12.07
2017-10-11T02:22:10.391Z,12.88
2017-10-11T02:24:38.593Z,12.50
2017-10-11T02:27:05.313Z,11.38
2017-10-11T02:29:33.484Z,13.23
2017-10-11T02:32:00.262Z,12.75
2017-10-11T02:34:26.960Z,13.02
2017-10-11T02:36:53.672Z,12.37
2017-10-11T02:39:20.396Z,11.73
2017-10-11T02:41:47.150Z,12.05
2017-10-11T02:44:14.618Z,10.80
2017-10-11T02:46:41.416Z,10.77
2017-10-11T02:49:08.825Z,11.00
2017-10-11T02:51:35.545Z,12.50
2017-10-11T02:54:03.733Z,12.88
2017-10-11T02:56:30.678Z,12.88
2017-10-11T02:58:58.100Z,12.10
2017-10-11T03:01:25.806Z,11.52
2017-10-11T03:03:54.192Z,12.35
2017-10-11T03:06:21.866Z,12.10
2017-10-11T03:08:49.521Z,12.25
2017-10-11T03:11:16.668Z,10.73
2017-10-11T03:13:46.121Z,11.25
2017-10-11T03:16:12.859Z,11.23
2017-10-11T03:18:40.788Z,9.98
2017-10-11T03:21:08.360Z,10.15
2017-10-11T03:23:35.303Z,11.07
2017-10-11T03:26:03.516Z,9.98
2017-10-11T03:28:31.348Z,10.32
2017-10-11T03:30:58.361Z,8.90
2017-10-11T03:33:27.428Z,9.70
2017-10-11T03:35:55.879Z,9.50
2017-10-11T03:38:22.627Z,9.73
2017-10-11T03:40:50.340Z,8.38
2017-10-11T03:43:17.934Z,9.10
2017-10-11T03:45:45.517Z,8.30
2017-10-11T03:48:12.285Z,9.32
2017-10-11T03:50:39.017Z,9.23
2017-10-11T03:53:06.070Z,7.43
2017-10-11T03:55:32.785Z,9.27
2017-10-11T03:57:59.706Z,7.37
2017-10-11T04:00:27.132Z,7.55
2017-10-11T04:02:54.124Z,8.27
2017-10-11T04:05:22.068Z,7.55
2017-10-11T04:07:49.951Z,7.03
2017-10-11T04:10:17.722Z,7.93
2017-10-11T04:12:44.735Z,7.43
2017-10-11T04:15:11.505Z,6.95
2017-10-11T04:17:39.135Z,7.62
2017-10-11T04:20:05.965Z,7.20
2017-10-11T04:22:34.259Z,6.43
2017-10-11T04:25:01.636Z,6.80
2017-10-11T04:27:29.232Z,5.78
2017-10-11T04:29:56.596Z,6.55
2017-10-11T04:32:23.326Z,6.78
2017-10-11T04:34:53.567Z,6.97
2017-10-11T04:37:20.546Z,6.55
2017-10-11T04:39:47.291Z,6.28
2017-10-11T04:42:14.013Z,7.03
2017-10-11T04:44:41.187Z,8.07
2017-10-11T04:47:08.173Z,7.35
2017-10-11T04:49:36.068Z,7.55
2017-10-11T04:52:04.959Z,7.10
2017-10-11T04:54:31.782Z,6.97
2017-10-11T04:56:59.546Z,7.20
2017-10-11T04:59:26.256Z,6.65
2017-10-11T05:01:54.973Z,6.70
2017-10-11T05:04:22.623Z,7.05
2017-10-11T05:06:49.314Z,7.45
2017-10-11T05:09:19.229Z,7.60
2017-10-11T05:11:46.638Z,7.32
2017-10-11T05:14:15.842Z,6.30
2017-10-11T05:16:42.542Z,6.60
2017-10-11T05:19:10.742Z,6.43
2017-10-11T05:21:37.457Z,6.70
2017-10-11T05:24:04.936Z,6.10
2017-10-11T05:26:32.713Z,6.30
2017-10-11T05:28:59.412Z,6.15
2017-10-11T05:31:27.861Z,5.97
2017-10-11T05:33:57.100Z,5.50
2017-10-11T05:36:25.761Z,4.95
2017-10-11T05:38:54.281Z,5.90
2017-10-11T05:41:24.503Z,4.87
2017-10-11T05:43:51.193Z,5.90
2017-10-11T05:46:17.896Z,4.60
2017-10-11T05:48:44.572Z,4.90
2017-10-11T05:51:11.274Z,5.87
2017-10-11T05:53:37.960Z,5.57
2017-10-11T05:56:04.661Z,4.75
2017-10-11T05:58:31.344Z,6.25
2017-10-11T06:00:58.056Z,4.95
2017-10-11T06:03:24.741Z,4.37
2017-10-11T06:05:51.451Z,4.18
2017-10-11T06:08:18.127Z,5.55
2017-10-11T06:10:44.809Z,4.95
2017-10-11T06:13:11.521Z,5.28
2017-10-11T06:15:38.557Z,5.20
2017-10-11T06:18:05.262Z,5.12
2017-10-11T06:20:31.942Z,5.05
2017-10-11T06:22:58.652Z,5.55
2017-10-11T06:25:25.350Z,4.97
2017-10-11T06:27:52.072Z,5.20
2017-10-11T06:30:18.766Z,5.30
2017-10-11T06:32:45.489Z,5.72
2017-10-11T06:35:12.172Z,5.35
2017-10-11T06:37:38.872Z,4.97
2017-10-11T06:40:05.547Z,5.68
2017-10-11T06:42:32.255Z,4.57
2017-10-11T06:44:58.955Z,4.60
2017-10-11T06:47:25.660Z,4.50
2017-10-11T06:49:52.624Z,5.25
2017-10-11T06:52:20.523Z,5.47
2017-10-11T06:54:48.417Z,4.97
2017-10-11T06:57:16.390Z,5.03
2017-10-11T06:59:44.054Z,4.28
2017-10-11T07:02:11.806Z,4.57
2017-10-11T07:04:39.482Z,5.05
2017-10-11T07:07:07.482Z,4.28
2017-10-11T07:09:35.400Z,4.35
2017-10-11T07:12:03.236Z,4.82
2017-10-11T07:14:30.828Z,4.05
2017-10-11T07:16:58.596Z,4.93
2017-10-11T07:19:26.197Z,4.55
2017-10-11T07:21:54.159Z,5.90
2017-10-11T07:24:21.767Z,5.85
2017-10-11T07:26:49.468Z,5.35
2017-10-11T07:29:16.964Z,4.78
2017-10-11T07:31:44.982Z,5.90
2017-10-11T07:34:12.806Z,5.70
2017-10-11T07:36:40.367Z,5.90
2017-10-11T07:39:08.055Z,5.07
2017-10-11T07:41:35.749Z,5.60
2017-10-11T07:44:03.228Z,5.07
2017-10-11T07:46:30.714Z,6.60
2017-10-11T07:48:58.469Z,6.00
2017-10-11T07:51:26.020Z,5.82
2017-10-11T07:53:53.620Z,5.30
2017-10-11T07:56:21.242Z,5.20
2017-10-11T07:58:48.948Z,4.90
2017-10-11T08:01:16.604Z,6.20
2017-10-11T08:03:44.395Z,6.03
2017-10-11T08:06:11.967Z,5.60
2017-10-11T08:08:39.667Z,4.87
2017-10-11T08:11:06.896Z,4.95
2017-10-11T08:13:34.673Z,5.35
2017-10-11T08:16:02.359Z,5.78
2017-10-11T08:18:30.081Z,5.60
2017-10-11T08:20:57.683Z,4.45
2017-10-11T08:23:25.461Z,5.40
2017-10-11T08:25:53.253Z,5.55
2017-10-11T08:28:21.181Z,5.75
2017-10-11T08:30:48.823Z,5.50
2017-10-11T08:33:16.517Z,4.85
2017-10-11T08:35:43.299Z,5.47
2017-10-11T08:38:10.000Z,5.47
2017-10-11T08:40:36.675Z,5.55
2017-10-11T08:43:03.384Z,5.07
2017-10-11T08:45:30.069Z,5.43
2017-10-11T08:47:56.792Z,5.55
2017-10-11T08:50:23.479Z,5.10
2017-10-11T08:52:50.185Z,4.60
2017-10-11T08:55:17.134Z,4.57
2017-10-11T08:57:43.811Z,4.62
2017-10-11T09:00:10.512Z,4.80
2017-10-11T09:02:37.196Z,4.30
2017-10-11T09:05:03.903Z,4.40
2017-10-11T09:07:30.583Z,4.15
2017-10-11T09:09:57.287Z,3.80
2017-10-11T09:12:23.973Z,5.18
2017-10-11T09:14:50.678Z,5.00
2017-10-11T09:17:17.364Z,4.18
2017-10-11T09:19:44.781Z,4.53
2017-10-11T09:22:11.466Z,4.25
2017-10-11T09:24:38.171Z,4.25
2017-10-11T09:27:10.866Z,3.40
2017-10-11T09:29:37.592Z,3.53
2017-10-11T09:32:04.286Z,4.12
2017-10-11T09:34:30.988Z,3.20
2017-10-11T09:36:57.668Z,3.70
2017-10-11T09:39:24.371Z,3.20
2017-10-11T09:41:51.044Z,4.12
2017-10-11T09:44:17.756Z,3.10
2017-10-11T09:46:44.444Z,4.07
2017-10-11T09:49:11.161Z,3.65
2017-10-11T09:51:37.847Z,4.20
2017-10-11T09:54:04.556Z,3.70
2017-10-11T09:56:32.211Z,3.83
2017-10-11T09:58:58.948Z,3.83
2017-10-11T10:01:27.148Z,3.95
2017-10-11T10:03:54.792Z,3.95
2017-10-11T10:06:22.513Z,3.35
2017-10-11T10:08:50.956Z,4.00
2017-10-11T10:11:17.697Z,4.03
2017-10-11T10:13:44.404Z,4.37
2017-10-11T10:16:11.935Z,3.65
2017-10-11T10:18:40.786Z,3.50
2017-10-11T10:21:08.763Z,2.90
2017-10-11T10:23:36.191Z,2.78
2017-10-11T10:26:05.499Z,3.22
2017-10-11T10:28:33.885Z,3.00
2017-10-11T10:31:00.672Z,3.40
2017-10-11T10:33:27.362Z,3.40
2017-10-11T10:35:57.588Z,2.53
2017-10-11T10:38:25.628Z,3.40
2017-10-11T10:40:52.356Z,2.85
2017-10-11T10:43:22.200Z,3.10
2017-10-11T10:45:49.600Z,3.40
2017-10-11T10:48:17.108Z,2.55
2017-10-11T10:50:46.034Z,3.45
2017-10-11T10:53:12.742Z,3.03
2017-10-11T10:55:40.328Z,3.20
2017-10-11T10:58:10.124Z,3.40
2017-10-11T11:00:45.725Z,3.25
2017-10-11T11:03:15.067Z,3.70
2017-10-11T11:05:42.819Z,3.25
2017-10-11T11:08:09.510Z,3.47
2017-10-11T11:10:39.200Z,3.80
2017-10-11T11:13:06.487Z,4.03
2017-10-11T11:15:33.204Z,3.70
2017-10-11T11:18:02.291Z,3.70
2017-10-11T11:20:29.023Z,3.45
2017-10-11T11:22:56.891Z,3.67
2017-10-11T11:25:24.479Z,3.85
2017-10-11T11:27:52.525Z,3.85
2017-10-11T11:30:19.299Z,3.70
2017-10-11T11:32:45.992Z,3.92
2017-10-11T11:35:16.340Z,4.22
2017-10-11T11:37:43.263Z,4.68
2017-10-11T11:40:10.216Z,4.37
2017-10-11T11:42:37.800Z,4.72
2017-10-11T11:45:05.377Z,4.65
2017-10-11T11:47:32.082Z,5.30
2017-10-11T11:49:58.811Z,5.50
2017-10-11T11:52:36.473Z,5.20
2017-10-11T11:55:03.184Z,4.87
2017-10-11T11:57:29.868Z,6.47
2017-10-11T11:59:56.579Z,4.90
2017-10-11T12:02:23.268Z,5.43
2017-10-11T12:04:49.944Z,4.75
2017-10-11T12:07:16.651Z,4.95
2017-10-11T12:09:43.336Z,5.50
2017-10-11T12:12:10.058Z,5.75
2017-10-11T12:14:36.744Z,4.80
2017-10-11T12:17:03.451Z,5.97
2017-10-11T12:19:30.439Z,4.55
2017-10-11T12:21:57.143Z,5.40
2017-10-11T12:24:23.821Z,5.18
2017-10-11T12:26:50.546Z,5.10
2017-10-11T12:29:17.232Z,5.93
2017-10-11T12:31:43.931Z,5.60
2017-10-11T12:34:10.617Z,6.10
2017-10-11T12:36:37.327Z,5.50
2017-10-11T12:39:04.011Z,5.35
2017-10-11T12:41:30.711Z,5.35
2017-10-11T12:43:57.392Z,5.80
2017-10-11T12:46:24.092Z,4.80
2017-10-11T12:48:50.771Z,4.70
2017-10-11T12:51:17.477Z,4.65
2017-10-11T12:53:44.160Z,4.20
2017-10-11T12:56:10.871Z,4.87
2017-10-11T12:58:37.564Z,4.72
2017-10-11T13:01:04.268Z,4.40
2017-10-11T13:03:30.947Z,4.15
2017-10-11T13:05:57.652Z,4.72
2017-10-11T13:08:24.338Z,4.25
2017-10-11T13:10:51.049Z,4.60
2017-10-11T13:13:17.744Z,4.25
2017-10-11T13:15:44.428Z,3.85
2017-10-11T13:18:11.128Z,4.80
2017-10-11T13:20:37.822Z,3.95
2017-10-11T13:23:04.540Z,4.43
2017-10-11T13:25:31.232Z,4.70
2017-10-11T13:27:57.947Z,4.70
2017-10-11T13:30:24.623Z,3.67
2017-10-11T13:32:51.328Z,4.07
2017-10-11T13:35:18.401Z,3.40
2017-10-11T13:37:45.121Z,3.87
2017-10-11T13:40:11.801Z,3.17
2017-10-11T13:42:38.519Z,3.20
2017-10-11T13:45:05.212Z,2.75
2017-10-11T13:47:31.913Z,2.95
2017-10-11T13:49:58.599Z,2.85
2017-10-11T13:52:25.307Z,4.10
2017-10-11T13:54:51.987Z,2.95
2017-10-11T13:57:18.687Z,3.97
2017-10-11T13:59:45.371Z,3.65
2017-10-11T14:02:12.078Z,4.28
2017-10-11T14:04:38.760Z,4.22
2017-10-11T14:07:05.468Z,3.17
2017-10-11T14:09:32.151Z,3.40
2017-10-11T14:11:58.844Z,4.12
2017-10-11T14:14:25.531Z,4.10
2017-10-11T14:16:52.236Z,4.25
2017-10-11T14:19:18.919Z,4.10
2017-10-11T14:21:45.632Z,4.62
2017-10-11T14:24:12.312Z,5.93
2017-10-11T14:26:38.996Z,4.30
2017-10-11T14:29:05.712Z,4.85
2017-10-11T14:31:32.391Z,5.70
2017-10-11T14:33:59.093Z,5.07
2017-10-11T14:36:25.772Z,5.72
2017-10-11T14:38:52.467Z,5.03
2017-10-11T14:41:19.152Z,6.32
2017-10-11T14:43:45.855Z,6.60
2017-10-11T14:46:12.538Z,5.78
2017-10-11T14:48:39.239Z,6.43
2017-10-11T14:51:05.923Z,6.65
2017-10-11T14:53:32.633Z,6.37
2017-10-11T14:55:59.313Z,7.57
2017-10-11T14:58:26.011Z,5.47
2017-10-11T15:00:52.695Z,6.20
2017-10-11T15:03:19.397Z,5.65
2017-10-11T15:05:46.080Z,6.15
2017-10-11T15:08:12.780Z,5.28
2017-10-11T15:10:39.463Z,5.97
2017-10-11T15:13:06.164Z,5.40
2017-10-11T15:15:32.853Z,5.35
2017-10-11T15:17:59.556Z,5.70
2017-10-11T15:20:26.243Z,5.32
2017-10-11T15:22:52.947Z,5.87
2017-10-11T15:25:19.983Z,5.65
2017-10-11T15:27:46.684Z,5.40
2017-10-11T15:30:13.368Z,5.60
2017-10-11T15:32:40.076Z,5.50
2017-10-11T15:35:06.755Z,4.90
2017-10-11T15:37:33.467Z,5.15
2017-10-11T15:40:00.148Z,4.90
2017-10-11T15:42:26.829Z,5.70
2017-10-11T15:44:53.542Z,5.03
2017-10-11T15:47:20.240Z,4.20
2017-10-11T15:49:46.944Z,4.65
2017-10-11T15:54:40.314Z,4.37
2017-10-11T15:57:07.003Z,5.07
2017-10-11T15:59:33.703Z,4.10
2017-10-11T16:02:00.376Z,4.68
2017-10-11T16:04:27.080Z,4.70
2017-10-11T16:06:53.764Z,4.53
2017-10-11T16:09:20.467Z,5.53
2017-10-11T16:11:47.147Z,5.10
2017-10-11T16:14:13.855Z,5.45
2017-10-11T16:16:40.544Z,5.45
2017-10-11T16:19:07.252Z,5.10
2017-10-11T16:21:33.927Z,5.25
2017-10-11T16:24:00.631Z,5.45
2017-10-11T16:26:27.308Z,5.07
2017-10-11T16:28:54.007Z,5.55
2017-10-11T16:31:20.702Z,5.30
2017-10-11T16:33:47.399Z,5.53
2017-10-11T16:36:14.084Z,4.78
2017-10-11T16:38:40.784Z,5.40
2017-10-11T16:41:07.467Z,5.05
2017-10-11T16:43:34.180Z,5.07
2017-10-11T16:46:00.871Z,4.50
2017-10-11T16:48:27.582Z,5.30
2017-10-11T16:50:54.267Z,5.60
2017-10-11T16:53:20.962Z,5.00
2017-10-11T16:55:47.668Z,5.10
2017-10-11T16:58:15.101Z,4.90
2017-10-11T17:00:42.056Z,4.15
2017-10-11T17:03:08.738Z,4.53
2017-10-11T17:05:35.440Z,4.78
2017-10-11T17:08:02.916Z,4.72
2017-10-11T17:10:32.271Z,4.53
2017-10-11T17:12:59.880Z,5.30
2017-10-11T17:15:28.284Z,4.87
2017-10-11T17:17:56.532Z,4.37
2017-10-11T17:20:23.344Z,4.00
2017-10-11T17:22:50.060Z,4.80
2017-10-11T17:25:17.459Z,5.07
2017-10-11T17:27:44.163Z,4.65
2017-10-11T17:30:11.671Z,4.87
2017-10-11T17:32:39.767Z,4.60
2017-10-11T17:35:06.545Z,4.55
2017-10-11T17:37:34.972Z,4.85
2017-10-11T17:42:34.712Z,4.30
2017-10-11T17:45:01.752Z,4.25
2017-10-11T17:47:28.659Z,4.43
2017-10-11T17:49:55.991Z,4.25
2017-10-11T17:52:24.438Z,4.30
2017-10-11T17:54:52.176Z,4.32
2017-10-11T17:57:19.667Z,4.65
2017-10-11T17:59:46.429Z,4.45
2017-10-11T18:02:13.138Z,4.50
2017-10-11T18:04:41.574Z,4.20
2017-10-11T18:07:08.819Z,4.72
2017-10-11T18:09:35.533Z,4.50
2017-10-11T18:12:02.580Z,4.35
2017-10-11T18:14:30.965Z,4.40
2017-10-11T18:16:57.736Z,4.57
2017-10-11T18:19:27.003Z,4.18
2017-10-11T18:21:54.985Z,4.50
2017-10-11T18:24:21.906Z,4.05
2017-10-11T18:26:51.155Z,3.60
2017-10-11T18:29:17.852Z,3.62
2017-10-11T18:31:44.563Z,4.00
2017-10-11T18:34:13.975Z,3.95
2017-10-11T18:36:41.783Z,4.15
2017-10-11T18:39:08.460Z,4.28
2017-10-11T18:41:35.963Z,4.15
2017-10-11T18:44:05.024Z,3.60
2017-10-11T18:46:32.471Z,4.00
2017-10-11T18:49:00.616Z,3.95
2017-10-11T18:51:29.092Z,3.45
2017-10-11T18:53:56.149Z,3.60
2017-10-11T18:56:24.488Z,3.67
2017-10-11T18:58:53.207Z,3.83
2017-10-11T19:01:21.807Z,4.12
2017-10-11T19:03:50.021Z,3.78
2017-10-11T19:06:18.955Z,3.53
2017-10-11T19:08:46.372Z,3.20
2017-10-11T19:11:14.892Z,3.90
2017-10-11T19:13:42.371Z,4.10
2017-10-11T19:16:09.755Z,3.15
2017-10-11T19:18:37.927Z,4.05
2017-10-11T19:21:06.220Z,4.30
2017-10-11T19:23:33.491Z,3.40
2017-10-11T19:26:00.211Z,3.50
2017-10-11T19:28:27.895Z,3.10
2017-10-11T19:30:56.408Z,3.55
2017-10-11T19:33:24.939Z,2.70
2017-10-11T19:35:52.977Z,2.97
2017-10-11T19:38:19.675Z,3.40
2017-10-11T19:40:47.417Z,2.80
2017-10-11T19:43:14.138Z,3.05
2017-10-11T19:45:41.421Z,3.22
2017-10-11T19:48:08.373Z,3.70
2017-10-11T19:50:35.151Z,3.85
2017-10-11T19:53:04.273Z,3.20
2017-10-11T19:55:31.287Z,3.95
2017-10-11T19:57:58.284Z,3.30
2017-10-11T20:00:25.737Z,3.40
2017-10-11T20:02:53.303Z,2.85
2017-10-11T20:05:20.932Z,2.90
2017-10-11T20:07:48.616Z,2.95
2017-10-11T20:10:15.296Z,3.10
2017-10-11T20:12:43.851Z,3.10
2017-10-11T20:15:10.763Z,3.90
2017-10-11T20:17:38.096Z,3.03
2017-10-11T20:20:05.289Z,3.00
2017-10-11T20:22:34.041Z,3.05
2017-10-11T20:25:00.779Z,3.05
2017-10-11T20:27:27.503Z,3.10
2017-10-11T20:29:54.180Z,3.00
2017-10-11T20:32:20.883Z,2.75
2017-10-11T20:34:47.567Z,3.00
2017-10-11T20:37:14.304Z,2.80
2017-10-11T20:39:42.530Z,2.67
2017-10-11T20:42:09.317Z,2.87
2017-10-11T20:44:37.059Z,2.60
2017-10-11T20:47:03.774Z,3.00
2017-10-11T20:49:31.672Z,2.62
2017-10-11T20:52:02.488Z,3.37
2017-10-11T20:54:31.015Z,2.87
2017-10-11T20:56:57.727Z,2.90
2017-10-11T20:59:24.404Z,3.65
2017-10-11T21:01:51.112Z,2.35
2017-10-11T21:04:17.792Z,2.97
2017-10-11T21:06:46.035Z,3.08
2017-10-11T21:09:13.848Z,2.45
2017-10-11T21:11:40.550Z,2.85
2017-10-11T21:14:09.583Z,2.90
2017-10-11T21:16:36.607Z,2.40
2017-10-11T21:19:05.656Z,2.65
2017-10-11T21:21:33.365Z,2.83
2017-10-11T21:24:00.995Z,3.20
2017-10-11T21:26:28.698Z,3.35
2017-10-11T21:28:56.076Z,2.30
2017-10-11T21:31:24.176Z,2.62
2017-10-11T21:33:51.759Z,2.50
2017-10-11T21:36:19.348Z,2.90
2017-10-11T21:38:46.268Z,2.70
2017-10-11T21:41:13.896Z,2.97
2017-10-11T21:43:40.853Z,3.50
2017-10-11T21:46:08.468Z,2.70
2017-10-11T21:48:35.235Z,3.08
2017-10-11T21:51:02.890Z,2.80
2017-10-11T21:53:30.455Z,3.25
2017-10-11T21:55:57.936Z,3.03
2017-10-11T21:58:24.887Z,2.80
2017-10-11T22:00:51.793Z,2.90
2017-10-11T22:03:18.489Z,3.12
2017-10-11T22:05:47.002Z,3.12
2017-10-11T22:08:13.724Z,2.45
2017-10-11T22:10:45.733Z,2.35
2017-10-11T22:13:12.656Z,2.70
2017-10-11T22:15:40.121Z,2.72
2017-10-11T22:18:06.838Z,2.58
2017-10-11T22:20:35.310Z,2.03
2017-10-11T22:23:03.031Z,1.92
2017-10-11T22:25:29.751Z,2.10
2017-10-11T22:27:56.715Z,1.80
2017-10-11T22:30:24.876Z,2.60
2017-10-11T22:32:52.141Z,2.35
2017-10-11T22:35:19.727Z,1.70
2017-10-11T22:37:50.476Z,2.20
2017-10-11T22:40:17.204Z,2.22
2017-10-11T22:42:44.516Z,1.95
2017-10-11T22:45:11.231Z,2.20
2017-10-11T22:47:39.749Z,1.90
2017-10-11T22:50:07.320Z,1.90
2017-10-11T22:52:34.012Z,2.17
2017-10-11T22:55:01.912Z,2.33
2017-10-11T22:57:29.455Z,2.78
2017-10-11T22:59:58.546Z,2.00
2017-10-11T23:02:25.236Z,2.17
2017-10-11T23:04:51.935Z,2.50
2017-10-11T23:07:19.075Z,2.20
2017-10-11T23:09:46.221Z,1.98
2017-10-11T23:12:15.459Z,2.08
2017-10-11T23:14:43.681Z,1.92
2017-10-11T23:17:12.192Z,2.03
2017-10-11T23:19:40.584Z,1.90
2017-10-11T23:22:08.128Z,2.55
2017-10-11T23:24:35.040Z,2.58
2017-10-11T23:27:02.004Z,2.12
2017-10-11T23:29:30.415Z,1.90
2017-10-11T23:31:57.794Z,2.05
2017-10-11T23:34:24.498Z,2.33
2017-10-11T23:36:51.635Z,2.10
2017-10-11T23:39:18.317Z,2.20
2017-10-11T23:41:45.104Z,2.15
2017-10-11T23:44:16.161Z,2.30
2017-10-11T23:46:44.524Z,1.95
2017-10-11T23:49:12.449Z,2.20
2017-10-11T23:51:42.027Z,1.60
2017-10-11T23:54:10.493Z,1.92
2017-10-11T23:59:11.051Z,1.92
